Time;durP1;ratioP1;P1;durP2;ratioP2;P2;SDS_P1;SDS_P2;PMS_P1;PMS_P2;Temp;Humidity;BMP_temperature;BMP_pressure;BME280_temperature;BME280_humidity;BME280_pressure;Samples;Min_cycle;Max_cycle;Signal;HPM_P1;HPM_P2
2023/05/24 00:01:58;;;;;;;6.88;3.20;;;;;;;12.28;78.82;97578.66;4999433;28;20092;-58
2023/05/24 00:04:29;;;;;;;5.45;2.63;;;;;;;12.31;79.35;97572.69;5003058;28;20117;-59
2023/05/24 00:06:55;;;;;;;8.98;2.83;;;;;;;12.32;79.38;97566.19;5000289;28;20064;-60
2023/05/24 00:09:22;;;;;;;6.03;2.35;;;;;;;12.44;78.29;97563.31;4999280;28;20729;-58
2023/05/24 00:11:49;;;;;;;7.00;3.25;;;;;;;12.38;78.87;97563.53;5002130;28;20528;-59
2023/05/24 00:14:15;;;;;;;5.88;2.88;;;;;;;12.39;78.50;97562.44;5002175;28;20558;-60
2023/05/24 00:16:42;;;;;;;9.30;3.17;;;;;;;12.19;80.31;97556.59;5003037;28;20112;-59
2023/05/24 00:19:09;;;;;;;5.28;2.97;;;;;;;12.23;79.49;97555.00;5001934;28;20041;-59
2023/05/24 00:21:37;;;;;;;5.38;2.75;;;;;;;12.22;80.07;97544.41;5001129;28;20038;-59
2023/05/24 00:24:03;;;;;;;6.50;3.40;;;;;;;12.32;79.41;97552.63;5002413;28;20048;-59
2023/05/24 00:26:30;;;;;;;5.60;2.78;;;;;;;12.19;80.29;97558.47;5002291;28;20099;-59
2023/05/24 00:28:57;;;;;;;9.90;3.17;;;;;;;12.12;80.20;97557.88;4991880;28;20112;-59
2023/05/24 00:31:24;;;;;;;6.53;3.00;;;;;;;12.12;80.20;97563.31;4998249;28;20424;-60
2023/05/24 00:33:50;;;;;;;5.25;3.00;;;;;;;12.14;80.08;97563.88;4995620;28;20121;-60
2023/05/24 00:36:17;;;;;;;7.80;3.47;;;;;;;12.13;79.30;97557.63;4995734;28;20553;-60
2023/05/24 00:38:46;;;;;;;5.57;2.60;;;;;;;12.20;78.83;97560.94;4998953;28;20065;-58
2023/05/24 00:41:15;;;;;;;6.63;2.92;;;;;;;12.20;78.68;97557.41;4992414;28;20141;-60
2023/05/24 00:43:44;;;;;;;8.13;2.97;;;;;;;12.20;78.60;97560.94;5001233;28;20564;-60
2023/05/24 00:46:25;;;;;;;6.05;2.83;;;;;;;12.26;76.36;97559.09;4993326;28;20560;-58
2023/05/24 00:48:53;;;;;;;6.50;2.83;;;;;;;12.14;76.49;97553.00;5000254;28;20042;-58
2023/05/24 00:51:20;;;;;;;6.47;2.67;;;;;;;12.15;76.85;97557.34;4993399;28;20038;-59
2023/05/24 00:53:47;;;;;;;6.40;2.75;;;;;;;12.03;76.79;97554.78;5002493;28;20797;-59
2023/05/24 00:56:15;;;;;;;7.57;2.95;;;;;;;12.02;75.96;97556.66;4999422;28;20497;-60
2023/05/24 00:58:43;;;;;;;5.03;2.80;;;;;;;11.92;76.12;97553.88;4995499;28;20061;-59
2023/05/24 01:01:09;;;;;;;8.13;2.65;;;;;;;11.90;75.85;97556.81;5001216;28;20041;-60
2023/05/24 01:03:36;;;;;;;8.10;3.25;;;;;;;11.86;75.57;97544.03;5003163;28;20042;-59
2023/05/24 01:06:06;;;;;;;7.28;2.70;;;;;;;11.79;76.19;97541.53;4999469;28;20653;-60
2023/05/24 01:08:38;;;;;;;9.13;2.90;;;;;;;11.71;75.70;97546.34;4995595;28;20053;-59
2023/05/24 01:11:25;;;;;;;8.80;3.05;;;;;;;11.82;74.81;97549.16;5000360;28;20084;-58
2023/05/24 01:14:13;;;;;;;5.57;2.80;;;;;;;11.64;75.73;97543.00;5001221;28;20041;-59
2023/05/24 01:16:58;;;;;;;6.55;3.28;;;;;;;11.68;75.17;97541.41;4992157;28;20050;-58
2023/05/24 01:19:50;;;;;;;10.45;2.88;;;;;;;11.68;74.86;97546.00;4986167;28;20037;-59
2023/05/24 01:23:00;;;;;;;9.95;3.17;;;;;;;11.57;75.79;97551.34;5013292;28;20046;-59
2023/05/24 01:25:58;;;;;;;8.38;3.92;;;;;;;11.59;75.53;97551.09;4949631;28;20062;-58
2023/05/24 01:28:26;;;;;;;9.60;3.03;;;;;;;11.45;76.01;97550.66;5017320;28;20038;-60
2023/05/24 01:30:54;;;;;;;10.48;3.78;;;;;;;11.42;76.38;97548.44;5002418;28;20042;-60
2023/05/24 01:33:22;;;;;;;5.35;3.15;;;;;;;11.13;77.68;97548.66;5002525;28;20034;-60
2023/05/24 01:35:48;;;;;;;7.82;3.20;;;;;;;11.17;77.67;97552.50;5005002;28;20053;-59
2023/05/24 01:38:15;;;;;;;8.40;3.58;;;;;;;11.28;77.36;97548.03;4995780;28;20053;-59
2023/05/24 01:40:43;;;;;;;8.57;3.55;;;;;;;11.37;76.65;97548.38;4997354;28;20054;-59
2023/05/24 01:43:26;;;;;;;7.35;2.83;;;;;;;11.36;76.45;97550.28;4993259;28;20066;-58
2023/05/24 01:46:01;;;;;;;10.82;3.30;;;;;;;11.23;77.65;97547.94;5003621;28;20046;-58
2023/05/24 01:48:47;;;;;;;6.90;3.45;;;;;;;11.26;77.45;97553.69;4994423;28;20038;-59
2023/05/24 01:51:18;;;;;;;10.05;3.13;;;;;;;11.28;77.32;97559.66;5004084;28;20514;-60
2023/05/24 01:53:46;;;;;;;7.60;2.92;;;;;;;11.38;77.00;97560.84;5004194;28;20689;-60
2023/05/24 01:56:15;;;;;;;9.55;3.22;;;;;;;11.47;76.25;97553.13;5004646;28;20085;-60
2023/05/24 01:58:45;;;;;;;7.95;2.80;;;;;;;11.40;76.77;97558.72;4996302;28;20069;-59
2023/05/24 02:01:13;;;;;;;13.98;3.53;;;;;;;11.35;77.16;97564.91;4995978;28;20169;-59
2023/05/24 02:03:40;;;;;;;8.88;3.00;;;;;;;11.37;76.38;97568.19;5006648;28;20077;-60
2023/05/24 02:06:07;;;;;;;8.27;3.28;;;;;;;11.18;77.59;97565.78;5004602;28;20117;-59
2023/05/24 02:08:33;;;;;;;12.05;3.33;;;;;;;11.18;77.61;97565.78;5002912;28;20048;-58
2023/05/24 02:11:01;;;;;;;6.80;3.15;;;;;;;11.19;77.29;97559.31;5001348;28;20034;-60
2023/05/24 02:13:27;;;;;;;12.23;3.63;;;;;;;11.08;78.25;97568.34;5000054;28;20492;-58
2023/05/24 02:15:54;;;;;;;10.45;3.83;;;;;;;10.95;78.41;97569.56;5002849;28;20050;-60
2023/05/24 02:18:21;;;;;;;8.50;3.38;;;;;;;11.05;77.78;97564.25;4999817;28;20046;-59
2023/05/24 02:20:48;;;;;;;9.85;3.40;;;;;;;11.10;77.79;97568.09;5000493;28;20979;-59
2023/05/24 02:23:14;;;;;;;12.27;3.85;;;;;;;11.10;77.37;97566.22;5003231;28;20092;-60
2023/05/24 02:25:41;;;;;;;8.65;2.85;;;;;;;11.10;77.49;97568.09;5002953;28;20037;-59
2023/05/24 02:28:08;;;;;;;7.85;3.05;;;;;;;11.07;77.73;97564.00;5001274;28;20046;-59
2023/05/24 02:30:35;;;;;;;10.73;3.22;;;;;;;11.10;76.86;97573.53;4998105;28;20045;-58
2023/05/24 02:33:01;;;;;;;8.18;3.22;;;;;;;11.05;76.82;97571.56;4991948;28;20046;-60
2023/05/24 02:35:28;;;;;;;8.45;2.83;;;;;;;11.06;76.65;97562.38;4994758;28;20038;-60
2023/05/24 02:37:57;;;;;;;8.20;3.00;;;;;;;11.03;76.89;97568.28;4996971;28;20057;-60
2023/05/24 02:40:24;;;;;;;11.40;4.75;;;;;;;10.97;77.56;97571.97;4999300;28;20453;-60
2023/05/24 02:42:50;;;;;;;8.68;3.10;;;;;;;10.91;77.72;97563.78;4999612;28;20034;-60
2023/05/24 02:45:17;;;;;;;8.38;3.47;;;;;;;10.90;77.99;97569.44;4996589;28;20045;-60
2023/05/24 02:47:45;;;;;;;7.97;2.78;;;;;;;10.98;77.64;97558.19;5004372;28;20042;-59
2023/05/24 02:50:12;;;;;;;10.45;3.08;;;;;;;10.87;78.43;97567.25;4997683;28;20103;-61
2023/05/24 02:52:38;;;;;;;8.40;3.10;;;;;;;10.93;77.78;97563.53;4999888;28;20085;-60
2023/05/24 02:55:06;;;;;;;11.48;4.13;;;;;;;10.85;78.17;97564.81;4994114;28;20050;-58
2023/05/24 02:57:33;;;;;;;11.70;3.13;;;;;;;10.89;77.97;97565.94;5002942;28;20048;-60
2023/05/24 02:59:59;;;;;;;7.45;3.20;;;;;;;10.91;77.85;97565.69;4992180;28;20096;-60
2023/05/24 03:02:32;;;;;;;8.48;3.58;;;;;;;10.93;77.76;97569.78;4998042;28;20472;-58
2023/05/24 03:05:00;;;;;;;10.10;3.20;;;;;;;10.80;78.82;97573.66;4998855;28;20042;-60
2023/05/24 03:07:26;;;;;;;5.95;2.95;;;;;;;10.70;79.36;97565.41;4985764;28;20046;-58
2023/05/24 03:09:53;;;;;;;11.48;3.60;;;;;;;10.72;79.43;97560.53;4997465;28;20048;-60
2023/05/24 03:12:19;;;;;;;6.80;3.15;;;;;;;10.74;79.01;97568.41;4993140;28;20101;-59
2023/05/24 03:14:46;;;;;;;8.77;3.50;;;;;;;10.83;78.74;97560.69;5002384;28;20057;-60
2023/05/24 03:17:13;;;;;;;11.57;3.60;;;;;;;10.69;79.62;97557.50;5000032;28;20422;-59
2023/05/24 03:19:40;;;;;;;13.95;3.65;;;;;;;10.69;79.68;97563.72;4999310;28;20058;-59
2023/05/24 03:22:07;;;;;;;11.50;3.55;;;;;;;10.72;79.48;97560.53;4999716;28;20076;-60
2023/05/24 03:24:34;;;;;;;10.00;3.60;;;;;;;10.72;79.15;97555.13;5012903;28;20429;-60
2023/05/24 03:27:01;;;;;;;8.40;3.42;;;;;;;10.63;80.00;97553.91;4998803;28;20084;-62
2023/05/24 03:29:27;;;;;;;11.68;3.25;;;;;;;10.62;79.75;97555.78;5000638;28;20038;-60
2023/05/24 03:31:54;;;;;;;10.48;3.40;;;;;;;10.61;80.23;97553.34;4991436;28;20142;-60
2023/05/24 03:34:21;;;;;;;7.97;3.28;;;;;;;10.57;80.22;97557.63;4997616;28;20109;-60
2023/05/24 03:36:48;;;;;;;8.55;3.22;;;;;;;10.60;79.73;97557.09;4988004;28;20512;-60
2023/05/24 03:39:15;;;;;;;5.97;2.92;;;;;;;10.60;80.50;97557.94;4994276;28;20056;-60
2023/05/24 03:41:59;;;;;;;8.05;3.50;;;;;;;10.49;79.95;97546.13;4987964;28;20061;-60
2023/05/24 03:44:26;;;;;;;8.75;4.25;;;;;;;10.46;80.06;97541.19;4998652;28;20045;-60
2023/05/24 03:46:53;;;;;;;11.73;3.80;;;;;;;10.36;81.33;97554.56;5002628;28;20053;-60
2023/05/24 03:49:19;;;;;;;11.48;3.58;;;;;;;10.22;81.73;97551.34;4996179;28;20050;-59
2023/05/24 03:51:46;;;;;;;9.57;3.70;;;;;;;10.25;81.70;97548.97;4998063;28;20057;-60
2023/05/24 03:54:12;;;;;;;6.85;2.83;;;;;;;10.16;82.24;97547.72;4994539;28;21675;-60
2023/05/24 03:56:40;;;;;;;10.68;3.15;;;;;;;10.17;82.00;97543.94;5000354;28;20038;-60
2023/05/24 03:59:07;;;;;;;10.02;3.40;;;;;;;10.18;82.52;97545.63;4989981;28;20057;-59
2023/05/24 04:01:35;;;;;;;10.50;3.67;;;;;;;10.06;82.36;97547.56;4995906;28;20049;-60
2023/05/24 04:04:02;;;;;;;13.85;3.80;;;;;;;10.12;82.50;97549.28;4992463;28;20042;-60
2023/05/24 04:06:29;;;;;;;9.68;3.75;;;;;;;10.16;81.95;97545.03;4995713;28;20600;-59
2023/05/24 04:08:58;;;;;;;9.98;3.53;;;;;;;10.13;82.55;97548.22;4993742;28;20454;-60
2023/05/24 04:11:28;;;;;;;11.75;3.50;;;;;;;10.21;81.71;97545.09;4995829;28;20038;-61
2023/05/24 04:13:56;;;;;;;8.65;3.13;;;;;;;10.24;81.93;97538.38;4995935;28;20042;-59
2023/05/24 04:16:23;;;;;;;9.70;3.40;;;;;;;10.16;82.61;97539.63;4995661;28;20037;-58
2023/05/24 04:18:50;;;;;;;8.38;3.70;;;;;;;10.20;82.20;97546.19;4996838;28;20046;-60
2023/05/24 04:21:16;;;;;;;11.05;3.65;;;;;;;10.27;81.97;97548.72;4995711;28;20784;-59
2023/05/24 04:23:43;;;;;;;8.23;3.50;;;;;;;10.26;81.98;97553.31;5000896;28;20049;-60
2023/05/24 04:26:10;;;;;;;7.13;3.25;;;;;;;10.30;81.97;97544.69;4997710;28;20181;-60
2023/05/24 04:28:40;;;;;;;9.25;3.13;;;;;;;10.34;81.83;97549.38;4993771;28;20658;-60
2023/05/24 04:31:08;;;;;;;11.40;3.83;;;;;;;10.26;82.42;97544.38;4996764;28;20124;-60
2023/05/24 04:33:38;;;;;;;10.50;3.53;;;;;;;10.03;82.92;97543.47;4995398;28;20037;-59
2023/05/24 04:36:04;;;;;;;7.95;3.67;;;;;;;10.02;83.51;97552.63;4994527;28;20057;-59
2023/05/24 04:38:33;;;;;;;13.32;3.15;;;;;;;10.06;83.24;97555.69;4996937;28;20045;-59
2023/05/24 04:41:00;;;;;;;9.35;3.75;;;;;;;10.15;83.21;97562.31;4991834;28;20046;-60
2023/05/24 04:43:27;;;;;;;7.25;3.85;;;;;;;10.26;83.09;97560.63;5000074;28;20063;-60
2023/05/24 04:45:54;;;;;;;8.27;3.42;;;;;;;10.23;82.90;97572.75;4992737;28;20089;-58
2023/05/24 04:48:23;;;;;;;8.25;3.67;;;;;;;10.23;82.95;97564.63;5000456;28;20686;-60
2023/05/24 04:50:51;;;;;;;11.57;5.07;;;;;;;10.23;83.36;97567.34;4993821;28;20502;-61
2023/05/24 04:53:18;;;;;;;8.68;3.28;;;;;;;10.22;83.16;97578.41;4994567;28;20528;-60
2023/05/24 04:55:45;;;;;;;8.23;3.55;;;;;;;10.22;83.57;97573.81;4996546;28;20053;-61
2023/05/24 04:58:12;;;;;;;10.75;4.35;;;;;;;10.32;83.27;97583.19;4986723;28;20050;-60
2023/05/24 05:00:39;;;;;;;11.23;3.15;;;;;;;10.38;82.45;97587.59;4999153;28;20081;-60
2023/05/24 05:03:06;;;;;;;8.38;3.50;;;;;;;10.31;82.77;97581.53;5000929;28;20045;-59
2023/05/24 05:05:33;;;;;;;10.00;3.15;;;;;;;10.38;82.75;97583.00;4995123;28;20138;-60
2023/05/24 05:08:00;;;;;;;10.68;3.65;;;;;;;10.41;82.19;97582.53;4998950;28;20050;-60
2023/05/24 05:10:27;;;;;;;7.53;3.25;;;;;;;10.40;81.92;97589.00;5001748;28;20050;-60
2023/05/24 05:12:53;;;;;;;13.52;4.82;;;;;;;10.36;81.90;97595.16;5001691;28;20044;-60
2023/05/24 05:15:22;;;;;;;12.18;4.25;;;;;;;10.38;81.74;97587.59;4999252;28;20432;-60
2023/05/24 05:17:49;;;;;;;13.70;3.83;;;;;;;10.23;82.30;97582.75;4998733;28;20046;-60
2023/05/24 05:20:16;;;;;;;10.40;3.08;;;;;;;10.23;81.73;97590.88;5000808;28;20504;-60
2023/05/24 05:22:46;;;;;;;12.90;3.72;;;;;;;10.32;80.99;97591.28;5003190;28;20481;-60
2023/05/24 05:25:13;;;;;;;10.77;3.20;;;;;;;10.43;80.19;97590.38;4994593;28;20576;-58
2023/05/24 05:27:39;;;;;;;10.55;3.95;;;;;;;10.35;79.99;97588.06;4999285;28;20083;-60
2023/05/24 05:30:07;;;;;;;8.00;3.03;;;;;;;10.27;80.08;97584.72;4998864;28;20046;-60
2023/05/24 05:32:36;;;;;;;9.27;3.40;;;;;;;10.27;80.32;97584.72;5001309;28;20054;-58
2023/05/24 05:35:04;;;;;;;10.13;3.75;;;;;;;10.40;79.04;97586.28;5001367;28;20049;-60
2023/05/24 05:37:30;;;;;;;13.68;3.33;;;;;;;10.37;79.16;97584.09;4998678;28;20515;-60
2023/05/24 05:39:57;;;;;;;9.65;3.72;;;;;;;10.38;80.33;97587.59;4994325;28;20056;-60
2023/05/24 05:42:23;;;;;;;9.20;3.92;;;;;;;10.27;79.76;97582.03;4993712;28;20460;-58
2023/05/24 05:44:51;;;;;;;9.65;3.42;;;;;;;10.48;78.56;97578.84;5001559;28;20061;-59
2023/05/24 05:47:18;;;;;;;7.10;3.35;;;;;;;10.49;78.78;97581.31;5001526;28;20532;-60
2023/05/24 05:49:44;;;;;;;9.60;3.50;;;;;;;10.59;78.59;97577.13;4991242;28;20101;-59
2023/05/24 05:52:11;;;;;;;12.65;3.55;;;;;;;10.36;79.16;97576.22;5001358;28;20420;-60
2023/05/24 05:54:38;;;;;;;10.30;3.28;;;;;;;10.15;79.93;97573.94;4990678;28;20639;-61
2023/05/24 05:57:06;;;;;;;12.05;3.60;;;;;;;10.26;79.82;97583.09;5000751;28;20149;-59
2023/05/24 05:59:34;;;;;;;11.80;3.90;;;;;;;10.19;80.10;97578.88;4992181;28;20089;-60
2023/05/24 06:02:05;;;;;;;9.40;3.83;;;;;;;10.24;79.25;97579.78;4992819;28;20054;-60
2023/05/24 06:04:32;;;;;;;11.98;3.95;;;;;;;10.21;79.10;97574.88;5001501;28;20073;-60
2023/05/24 06:06:59;;;;;;;10.05;3.10;;;;;;;10.05;79.87;97576.50;5000206;28;20054;-60
2023/05/24 06:09:26;;;;;;;10.88;3.80;;;;;;;10.10;79.40;97576.56;4992188;28;20050;-58
2023/05/24 06:11:52;;;;;;;11.48;3.45;;;;;;;9.93;80.00;97573.03;4997558;28;20665;-60
2023/05/24 06:14:21;;;;;;;10.48;3.58;;;;;;;9.99;80.04;97575.56;4989877;28;20042;-60
2023/05/24 06:16:47;;;;;;;11.25;3.05;;;;;;;10.21;78.74;97577.56;4999900;28;20121;-60
2023/05/24 06:19:15;;;;;;;15.77;3.70;;;;;;;10.17;78.71;97572.91;4991839;28;20038;-59
2023/05/24 06:21:46;;;;;;;13.30;4.20;;;;;;;10.28;78.70;97574.72;5003998;28;20045;-60
2023/05/24 06:24:14;;;;;;;9.77;3.60;;;;;;;10.19;78.79;97574.31;5004190;28;20147;-60
2023/05/24 06:26:40;;;;;;;12.05;3.75;;;;;;;10.38;78.26;97579.47;4995163;28;20062;-60
2023/05/24 06:29:08;;;;;;;9.40;3.20;;;;;;;10.49;78.65;97570.50;4998643;28;20143;-60
2023/05/24 06:31:34;;;;;;;11.10;3.28;;;;;;;10.51;77.91;97568.34;4993109;28;20762;-60
2023/05/24 06:34:01;;;;;;;9.95;3.70;;;;;;;10.43;77.74;97576.84;5000112;28;20044;-59
2023/05/24 06:36:34;;;;;;;11.30;3.63;;;;;;;10.54;78.21;97575.16;4993646;28;20057;-60
2023/05/24 06:39:02;;;;;;;13.55;3.35;;;;;;;10.74;77.75;97585.50;4992326;28;20588;-59
2023/05/24 06:41:28;;;;;;;9.88;3.17;;;;;;;10.72;76.46;97590.31;4991135;28;20046;-59
2023/05/24 06:43:55;;;;;;;9.60;3.90;;;;;;;10.61;77.88;97597.47;4995191;28;20045;-60
2023/05/24 06:46:21;;;;;;;10.02;3.40;;;;;;;10.83;76.50;97598.63;4995743;28;20057;-59
2023/05/24 06:48:48;;;;;;;8.70;3.20;;;;;;;10.88;76.41;97601.41;4996660;28;20504;-59
2023/05/24 06:51:15;;;;;;;13.63;4.43;;;;;;;10.90;76.12;97604.66;4996650;28;20789;-60
2023/05/24 06:53:41;;;;;;;14.77;3.85;;;;;;;10.91;76.21;97607.13;4998190;28;20120;-60
2023/05/24 06:56:08;;;;;;;13.18;3.75;;;;;;;10.95;75.93;97612.91;4999486;28;20053;-60
2023/05/24 06:58:35;;;;;;;11.70;3.25;;;;;;;11.10;74.90;97617.72;4993699;28;20558;-59
2023/05/24 07:01:03;;;;;;;11.70;3.15;;;;;;;10.82;76.90;97611.34;5000784;28;20065;-60
2023/05/24 07:03:31;;;;;;;9.40;3.22;;;;;;;10.82;76.82;97619.47;4993985;28;20042;-60
2023/05/24 07:05:57;;;;;;;10.63;3.83;;;;;;;11.09;75.57;97629.59;4999211;28;20073;-60
2023/05/24 07:08:24;;;;;;;10.98;3.28;;;;;;;11.10;75.52;97623.13;4994922;28;20038;-61
2023/05/24 07:10:52;;;;;;;11.55;3.35;;;;;;;11.03;75.64;97625.19;4991881;28;20049;-61
2023/05/24 07:13:19;;;;;;;10.35;3.47;;;;;;;10.70;77.22;97624.97;4992747;28;20045;-60
2023/05/24 07:15:46;;;;;;;11.63;3.88;;;;;;;10.68;77.55;97624.38;4997150;28;20053;-61
2023/05/24 07:18:13;;;;;;;12.10;3.42;;;;;;;10.53;78.21;97630.38;4997447;28;20144;-61
2023/05/24 07:20:39;;;;;;;12.07;3.58;;;;;;;10.83;77.37;97639.25;4992959;28;20049;-60
2023/05/24 07:23:07;;;;;;;12.10;3.58;;;;;;;10.84;76.61;97644.41;5000697;28;20045;-60
2023/05/24 07:25:33;;;;;;;13.05;3.22;;;;;;;11.00;75.92;97637.34;4998627;28;20665;-61
2023/05/24 07:28:00;;;;;;;7.40;3.33;;;;;;;11.21;74.50;97644.94;4994606;28;20057;-60
2023/05/24 07:30:27;;;;;;;10.05;3.05;;;;;;;11.39;73.82;97646.56;5001315;28;20042;-60
2023/05/24 07:32:58;;;;;;;12.73;4.20;;;;;;;11.29;72.56;97645.34;4990253;28;20050;-61
2023/05/24 07:35:25;;;;;;;7.32;3.80;;;;;;;11.49;72.88;97649.41;5000662;28;20052;-60
2023/05/24 07:37:52;;;;;;;15.48;3.88;;;;;;;11.04;74.62;97643.91;4993706;28;20623;-60
2023/05/24 07:40:19;;;;;;;8.82;3.17;;;;;;;11.40;74.12;97651.75;4998286;28;20117;-60
2023/05/24 07:42:46;;;;;;;10.05;4.10;;;;;;;11.21;74.55;97648.50;4999283;28;20045;-60
2023/05/24 07:45:12;;;;;;;11.57;3.75;;;;;;;11.32;74.32;97646.75;4985881;28;20053;-59
2023/05/24 07:47:39;;;;;;;11.27;3.78;;;;;;;11.50;73.14;97647.53;4999629;28;20057;-61
2023/05/24 07:50:06;;;;;;;8.43;3.15;;;;;;;11.09;74.48;97645.06;4992052;28;20047;-61
2023/05/24 07:52:34;;;;;;;9.80;3.47;;;;;;;11.30;74.48;97649.69;4994277;28;20050;-61
2023/05/24 07:55:00;;;;;;;17.02;3.50;;;;;;;11.39;73.39;97654.69;4996291;28;20034;-61
2023/05/24 07:57:27;;;;;;;15.45;4.65;;;;;;;11.57;72.97;97646.25;4998872;28;20129;-61
2023/05/24 07:59:53;;;;;;;13.20;3.30;;;;;;;11.49;72.78;97657.53;4989157;28;20049;-61
2023/05/24 08:02:20;;;;;;;8.07;3.25;;;;;;;11.54;72.72;97660.31;4998182;28;20103;-61
2023/05/24 08:04:47;;;;;;;9.68;3.30;;;;;;;11.72;71.32;97658.34;4997647;28;20034;-61
2023/05/24 08:07:13;;;;;;;8.73;3.20;;;;;;;11.68;70.93;97659.94;5003125;28;21439;-60
2023/05/24 08:09:40;;;;;;;9.77;3.13;;;;;;;11.62;71.73;97669.91;4999046;28;20077;-61
2023/05/24 08:12:07;;;;;;;14.25;3.38;;;;;;;11.61;72.05;97667.44;5002382;28;20042;-61
2023/05/24 08:14:34;;;;;;;8.73;3.40;;;;;;;11.80;71.48;97665.25;4993511;28;20061;-61
2023/05/24 08:17:00;;;;;;;13.95;3.67;;;;;;;11.79;72.18;97671.75;4991323;28;20095;-61
2023/05/24 08:19:27;;;;;;;12.98;3.50;;;;;;;11.70;70.42;97668.66;4998760;28;20045;-60
2023/05/24 08:21:56;;;;;;;10.43;3.92;;;;;;;11.79;70.73;97675.28;4984189;28;20056;-60
2023/05/24 08:24:22;;;;;;;10.23;3.80;;;;;;;11.96;69.47;97672.50;4989320;28;20066;-58
2023/05/24 08:26:51;;;;;;;10.25;3.42;;;;;;;12.09;68.68;97674.03;4993730;28;20046;-61
2023/05/24 08:29:18;;;;;;;11.30;3.90;;;;;;;12.12;69.17;97661.03;4998098;28;20042;-58
2023/05/24 08:31:44;;;;;;;14.00;3.70;;;;;;;11.76;70.42;97669.53;4993406;28;20054;-61
2023/05/24 08:34:11;;;;;;;11.38;3.50;;;;;;;11.67;71.52;97672.69;4996744;28;20045;-61
2023/05/24 08:36:41;;;;;;;11.65;4.18;;;;;;;11.56;71.93;97674.44;4992410;28;20042;-60
2023/05/24 08:39:08;;;;;;;13.35;4.00;;;;;;;11.52;71.25;97676.03;4997676;28;20046;-60
2023/05/24 08:41:37;;;;;;;12.23;3.80;;;;;;;11.51;71.73;97676.25;4995763;28;20081;-60
2023/05/24 08:44:07;;;;;;;15.02;4.60;;;;;;;11.40;71.65;97686.16;4997281;28;20038;-60
2023/05/24 08:46:35;;;;;;;15.07;4.43;;;;;;;11.05;73.24;97679.94;4991693;28;20042;-60
2023/05/24 08:49:03;;;;;;;9.90;4.00;;;;;;;10.97;73.93;97686.59;4992314;28;20710;-59
2023/05/24 08:51:30;;;;;;;12.63;3.60;;;;;;;10.89;73.57;97687.00;4995463;28;20052;-61
2023/05/24 08:54:00;;;;;;;12.40;4.53;;;;;;;10.90;74.29;97688.66;4997843;28;20061;-59
2023/05/24 08:56:27;;;;;;;9.70;3.25;;;;;;;10.90;74.68;97683.22;4993582;28;20037;-58
2023/05/24 08:58:54;;;;;;;15.70;4.45;;;;;;;10.99;73.80;97687.16;4999476;28;20412;-61
2023/05/24 09:01:23;;;;;;;9.77;3.92;;;;;;;10.99;74.49;97678.22;4993451;28;20168;-59
2023/05/24 09:03:50;;;;;;;9.63;3.55;;;;;;;10.75;75.70;97686.50;4999282;28;20042;-59
2023/05/24 09:06:18;;;;;;;12.80;4.10;;;;;;;10.82;75.78;97681.75;4994726;28;20049;-62
2023/05/24 09:08:45;;;;;;;9.77;3.97;;;;;;;10.99;75.01;97673.63;4996998;28;20532;-60
2023/05/24 09:11:14;;;;;;;12.73;4.43;;;;;;;10.98;74.90;97677.41;4992526;28;20149;-60
2023/05/24 09:13:41;;;;;;;14.25;5.03;;;;;;;11.01;73.95;97673.38;4999653;28;20044;-60
2023/05/24 09:16:08;;;;;;;10.48;5.03;;;;;;;11.17;72.68;97674.44;4993286;28;20046;-60
2023/05/24 09:18:34;;;;;;;9.88;3.95;;;;;;;11.43;72.05;97672.91;5000169;28;20128;-59
2023/05/24 09:21:01;;;;;;;12.65;4.13;;;;;;;11.30;73.11;97675.97;4997660;28;20657;-60
2023/05/24 09:23:29;;;;;;;12.18;4.53;;;;;;;11.05;74.97;97678.06;4993835;28;20046;-60
2023/05/24 09:25:56;;;;;;;9.00;3.75;;;;;;;11.49;73.26;97676.50;4996196;28;20050;-60
2023/05/24 09:28:23;;;;;;;14.20;4.35;;;;;;;11.66;72.13;97687.34;4996054;28;20777;-60
2023/05/24 09:31:01;;;;;;;14.57;4.20;;;;;;;11.60;72.78;97684.81;4990605;28;20670;-59
2023/05/24 09:33:34;;;;;;;10.23;3.80;;;;;;;11.76;71.09;97689.31;4997175;28;20046;-61
2023/05/24 09:36:03;;;;;;;9.15;3.78;;;;;;;11.95;70.16;97684.41;4998954;28;20053;-60
2023/05/24 09:38:30;;;;;;;15.98;4.40;;;;;;;12.07;70.54;97692.47;5002032;28;20068;-60
2023/05/24 09:41:07;;;;;;;10.27;3.42;;;;;;;11.95;70.28;97694.47;4995756;28;20077;-59
2023/05/24 09:43:46;;;;;;;10.07;4.32;;;;;;;11.53;72.50;97698.53;5002426;28;20099;-60
2023/05/24 09:46:17;;;;;;;11.85;4.15;;;;;;;11.43;72.63;97696.50;4996437;28;20373;-60
2023/05/24 09:48:57;;;;;;;14.85;4.35;;;;;;;11.61;72.32;97694.56;5004703;28;20069;-60
2023/05/24 09:51:25;;;;;;;10.63;3.97;;;;;;;11.78;71.34;97695.34;5003781;28;20433;-60
2023/05/24 09:53:56;;;;;;;9.55;4.20;;;;;;;11.99;71.09;97684.75;5006847;28;20037;-58
2023/05/24 09:56:23;;;;;;;7.32;3.53;;;;;;;12.14;68.28;97692.28;4998324;28;20820;-59
2023/05/24 09:58:50;;;;;;;14.27;3.83;;;;;;;11.99;69.07;97690.16;4999375;28;20053;-60
2023/05/24 10:01:17;;;;;;;11.18;3.78;;;;;;;12.10;68.98;97691.94;4993305;28;20053;-60
2023/05/24 10:03:54;;;;;;;9.77;3.75;;;;;;;12.52;68.58;97684.22;5002847;28;20050;-61
2023/05/24 10:06:22;;;;;;;11.52;3.90;;;;;;;12.54;66.96;97690.25;4997665;28;20104;-61
2023/05/24 10:08:50;;;;;;;13.18;4.47;;;;;;;13.00;64.38;97695.25;4997654;28;20050;-61
2023/05/24 10:11:18;;;;;;;17.83;3.92;;;;;;;13.07;64.42;97692.31;4998717;28;20049;-61
2023/05/24 10:13:44;;;;;;;8.90;3.55;;;;;;;12.95;63.37;97694.38;5003445;28;20050;-60
2023/05/24 10:16:11;;;;;;;12.80;4.18;;;;;;;13.01;63.22;97690.63;4995852;28;20046;-60
2023/05/24 10:18:38;;;;;;;8.18;3.40;;;;;;;13.09;62.62;97684.69;4995812;28;20046;-60
2023/05/24 10:21:08;;;;;;;13.05;5.05;;;;;;;13.40;61.41;97681.38;4999590;28;20048;-60
2023/05/24 10:23:37;;;;;;;9.68;3.55;;;;;;;13.50;61.69;97678.72;5002444;28;20573;-59
2023/05/24 10:26:08;;;;;;;7.63;3.40;;;;;;;13.58;61.08;97676.59;5001802;28;20048;-60
2023/05/24 10:28:39;;;;;;;12.82;4.10;;;;;;;13.42;62.93;97672.94;4992601;28;20413;-60
2023/05/24 10:31:10;;;;;;;10.38;3.38;;;;;;;13.45;62.76;97672.44;4994016;28;20042;-60
2023/05/24 10:33:39;;;;;;;10.90;4.30;;;;;;;13.22;62.53;97669.00;4996810;28;20053;-60
2023/05/24 10:36:09;;;;;;;12.10;3.67;;;;;;;13.34;62.40;97666.91;4999048;28;20050;-61
2023/05/24 10:38:39;;;;;;;10.30;3.50;;;;;;;13.72;60.46;97666.06;4999243;28;20566;-60
2023/05/24 10:41:07;;;;;;;11.23;3.65;;;;;;;13.82;59.77;97670.75;4998142;28;20049;-60
2023/05/24 10:43:37;;;;;;;9.40;3.88;;;;;;;13.81;60.79;97655.50;4996892;28;20521;-60
2023/05/24 10:46:07;;;;;;;10.55;3.83;;;;;;;13.62;61.13;97664.09;4996355;28;20054;-60
2023/05/24 10:48:35;;;;;;;10.65;3.85;;;;;;;14.12;61.31;97659.13;4996828;28;20054;-60
2023/05/24 10:51:38;;;;;;;12.35;3.63;;;;;;;13.67;61.08;97652.44;4994292;28;20058;-58
2023/05/24 10:54:18;;;;;;;15.10;3.97;;;;;;;13.72;60.47;97655.19;4991505;28;20058;-60
2023/05/24 10:56:47;;;;;;;8.82;3.75;;;;;;;13.75;59.71;97652.72;4996730;28;20056;-60
2023/05/24 10:59:37;;;;;;;8.80;3.85;;;;;;;14.49;57.49;97656.47;4991246;28;20187;-59
2023/05/24 11:02:12;;;;;;;8.43;3.30;;;;;;;15.09;55.49;97653.25;4993291;28;20061;-60
2023/05/24 11:04:44;;;;;;;10.40;4.50;;;;;;;14.83;56.32;97639.63;4998538;28;20096;-59
2023/05/24 11:07:14;;;;;;;11.93;4.63;;;;;;;15.04;55.67;97648.59;5000660;28;20092;-60
2023/05/24 11:09:46;;;;;;;11.05;4.10;;;;;;;15.02;56.37;97639.88;5001996;28;20046;-60
2023/05/24 11:12:16;;;;;;;10.95;3.50;;;;;;;15.30;51.76;97639.56;4994442;28;20161;-59
2023/05/24 11:14:48;;;;;;;10.32;3.67;;;;;;;14.74;52.11;97642.03;4997199;28;20789;-60
2023/05/24 11:17:15;;;;;;;11.65;2.92;;;;;;;14.70;51.14;97639.06;4998279;28;20042;-60
2023/05/24 11:19:51;;;;;;;11.80;3.78;;;;;;;14.66;52.13;97642.59;4996105;28;20053;-60
2023/05/24 11:22:20;;;;;;;9.00;3.67;;;;;;;14.48;54.19;97649.41;4998844;28;20709;-59
2023/05/24 11:24:47;;;;;;;9.00;3.70;;;;;;;14.17;54.26;97642.81;5001751;28;20058;-59
2023/05/24 11:27:14;;;;;;;8.70;4.03;;;;;;;13.75;56.23;97639.13;4995693;28;20132;-59
2023/05/24 11:29:43;;;;;;;13.05;3.47;;;;;;;13.96;56.32;97635.69;4995313;28;20144;-59
2023/05/24 11:32:15;;;;;;;11.20;3.63;;;;;;;13.90;55.76;97641.09;4993077;28;20042;-57
2023/05/24 11:34:43;;;;;;;7.38;3.83;;;;;;;14.05;55.76;97636.78;5001970;28;20050;-59
2023/05/24 11:37:10;;;;;;;8.98;3.80;;;;;;;14.20;55.72;97637.91;4992832;28;20084;-59